Time;durP1;ratioP1;P1;durP2;ratioP2;P2;SDS_P1;SDS_P2;PMS_P1;PMS_P2;Temp;Humidity;BMP_temperature;BMP_pressure;BME280_temperature;BME280_humidity;BME280_pressure;Samples;Min_cycle;Max_cycle;Signal;HPM_P1;HPM_P2
2023/09/19 00:00:33;;;;;;;0.40;0.20;;;;;;;18.97;100.00;99658.16;5012656;28;20438;-51
2023/09/19 00:03:00;;;;;;;0.40;0.20;;;;;;;18.83;100.00;99657.31;5003053;28;20544;-50
2023/09/19 00:05:27;;;;;;;0.40;0.20;;;;;;;19.01;100.00;99659.63;5008910;28;20580;-50
2023/09/19 00:07:58;;;;;;;0.40;0.20;;;;;;;18.85;100.00;99660.78;5006940;28;20453;-50
2023/09/19 00:10:26;;;;;;;0.50;0.20;;;;;;;18.89;100.00;99661.41;5002454;28;20426;-51
2023/09/19 00:12:55;;;;;;;0.40;0.20;;;;;;;18.96;100.00;99672.59;5014393;28;20578;-50
2023/09/19 00:15:28;;;;;;;0.40;0.20;;;;;;;18.88;100.00;99670.44;5002424;28;20483;-50
2023/09/19 00:17:55;;;;;;;0.40;0.20;;;;;;;18.73;100.00;99660.78;5002563;28;20929;-51
2023/09/19 00:20:23;;;;;;;0.60;0.60;;;;;;;18.68;100.00;99671.03;5015301;28;20465;-50
2023/09/19 00:22:53;;;;;;;0.40;0.20;;;;;;;18.58;100.00;99670.81;5003627;28;20423;-50
2023/09/19 00:25:20;;;;;;;0.40;0.20;;;;;;;18.63;100.00;99669.53;5003001;28;20458;-50
2023/09/19 00:27:49;;;;;;;0.40;0.20;;;;;;;18.41;100.00;99668.47;5002055;28;20458;-52
2023/09/19 00:30:19;;;;;;;0.40;0.20;;;;;;;18.54;100.00;99672.88;5007147;28;20453;-50
2023/09/19 00:32:47;;;;;;;0.40;0.20;;;;;;;18.49;100.00;99671.44;5008554;28;20559;-50
2023/09/19 00:35:15;;;;;;;0.40;0.20;;;;;;;18.51;100.00;99666.84;5004124;28;20452;-50
2023/09/19 00:37:42;;;;;;;0.40;0.20;;;;;;;18.54;100.00;99672.88;4984367;28;20457;-51
2023/09/19 00:40:12;;;;;;;0.40;0.20;;;;;;;18.54;100.00;99672.88;5006244;28;20831;-50
2023/09/19 00:42:39;;;;;;;0.40;0.20;;;;;;;18.42;100.00;99662.97;5008287;28;20460;-50
2023/09/19 00:45:11;;;;;;;0.40;0.20;;;;;;;18.46;100.00;99677.06;5004229;28;20445;-50
2023/09/19 00:47:41;;;;;;;0.43;0.20;;;;;;;18.56;100.00;99679.00;5001778;28;20445;-50
2023/09/19 00:50:09;;;;;;;0.40;0.20;;;;;;;18.50;100.00;99690.22;5004513;28;20898;-50
2023/09/19 00:52:39;;;;;;;0.40;0.20;;;;;;;18.53;100.00;99689.97;5008447;28;20516;-51
2023/09/19 00:55:08;;;;;;;0.47;0.20;;;;;;;18.79;100.00;99693.53;5026630;28;20448;-51
2023/09/19 00:57:38;;;;;;;0.50;0.20;;;;;;;18.71;100.00;99698.59;5011349;28;20431;-50
2023/09/19 01:00:12;;;;;;;0.40;0.20;;;;;;;18.63;100.00;99700.94;5014942;28;20463;-50
2023/09/19 01:02:38;;;;;;;0.40;0.20;;;;;;;18.59;100.00;99700.31;5001845;28;20540;-51
2023/09/19 01:05:05;;;;;;;0.40;0.20;;;;;;;18.63;100.00;99709.91;5007985;28;20869;-50
2023/09/19 01:07:35;;;;;;;0.40;0.20;;;;;;;18.54;100.00;99715.94;5001980;28;20453;-50
2023/09/19 01:10:09;;;;;;;0.40;0.20;;;;;;;18.47;100.00;99709.25;5001212;28;20431;-50
2023/09/19 01:12:53;;;;;;;0.40;0.20;;;;;;;18.48;100.00;99724.41;5005346;28;20490;-50
2023/09/19 01:15:41;;;;;;;0.40;0.20;;;;;;;18.37;100.00;99732.41;5007810;28;20454;-50
2023/09/19 01:18:23;;;;;;;0.40;0.20;;;;;;;18.38;100.00;99733.28;5007603;28;20455;-50
2023/09/19 01:21:05;;;;;;;0.40;0.20;;;;;;;18.33;100.00;99737.13;4987660;28;20452;-50
2023/09/19 01:23:50;;;;;;;0.40;0.20;;;;;;;18.20;100.00;99748.84;4997374;28;20448;-50
2023/09/19 01:27:02;;;;;;;0.40;0.20;;;;;;;17.99;100.00;99753.88;5007669;28;20844;-49
2023/09/19 01:29:36;;;;;;;0.40;0.20;;;;;;;17.98;100.00;99755.69;4948584;29;20494;-51
2023/09/19 01:32:05;;;;;;;0.40;0.20;;;;;;;17.88;100.00;99751.91;4953589;29;21026;-50
2023/09/19 01:34:48;;;;;;;0.40;0.20;;;;;;;17.88;100.00;99756.41;4986624;28;20488;-50
2023/09/19 01:37:20;;;;;;;0.40;0.20;;;;;;;17.80;100.00;99759.59;5005706;28;20464;-49
2023/09/19 01:39:51;;;;;;;0.40;0.20;;;;;;;17.85;100.00;99759.31;5000964;28;20449;-50
2023/09/19 01:42:55;;;;;;;0.40;0.20;;;;;;;17.74;100.00;99754.66;5001015;28;20524;-50
2023/09/19 01:45:36;;;;;;;0.40;0.20;;;;;;;17.57;100.00;99761.13;4994105;28;20474;-50
2023/09/19 01:48:25;;;;;;;0.40;0.20;;;;;;;17.55;100.00;99759.50;4994109;28;20431;-50
2023/09/19 01:50:59;;;;;;;0.50;0.20;;;;;;;17.39;100.00;99773.06;5007308;28;20421;-50
2023/09/19 01:53:51;;;;;;;0.50;0.20;;;;;;;17.29;100.00;99775.50;5004846;28;20498;-51
2023/09/19 01:56:29;;;;;;;0.47;0.20;;;;;;;17.34;100.00;99776.03;5009900;28;20517;-50
2023/09/19 01:59:03;;;;;;;0.40;0.20;;;;;;;17.28;100.00;99780.97;5013619;28;20519;-50
2023/09/19 02:01:31;;;;;;;0.40;0.20;;;;;;;17.24;100.00;99772.22;5007893;28;20552;-50
2023/09/19 02:03:58;;;;;;;0.40;0.20;;;;;;;17.27;100.00;99784.59;5000230;28;20507;-52
2023/09/19 02:06:25;;;;;;;0.50;0.20;;;;;;;17.22;100.00;99784.88;5002576;28;20473;-50
2023/09/19 02:08:51;;;;;;;0.40;0.20;;;;;;;17.42;100.00;99780.94;5006967;28;20423;-50
2023/09/19 02:11:18;;;;;;;0.40;0.20;;;;;;;17.31;100.00;99787.00;5005664;28;20964;-50
2023/09/19 02:13:44;;;;;;;0.40;0.20;;;;;;;17.31;100.00;99781.63;4982777;28;20972;-50
2023/09/19 02:16:12;;;;;;;0.40;0.20;;;;;;;17.52;100.00;99790.09;5001696;28;20474;-50
2023/09/19 02:18:39;;;;;;;0.50;0.20;;;;;;;17.69;100.00;99791.75;5005859;28;20431;-50
2023/09/19 02:21:12;;;;;;;0.50;0.20;;;;;;;17.74;100.00;99792.28;5005432;28;20456;-51
2023/09/19 02:23:38;;;;;;;0.40;0.20;;;;;;;17.78;100.00;99791.13;4996570;28;20785;-50
2023/09/19 02:26:05;;;;;;;0.40;0.20;;;;;;;17.86;100.00;99788.78;5006287;28;20472;-50
2023/09/19 02:28:32;;;;;;;0.40;0.20;;;;;;;17.63;100.00;99789.41;4999873;28;20431;-50
2023/09/19 02:30:59;;;;;;;0.40;0.20;;;;;;;17.72;100.00;99795.09;5000013;28;20847;-51
2023/09/19 02:33:25;;;;;;;0.40;0.20;;;;;;;17.88;100.00;99804.81;4993265;28;20551;-50
2023/09/19 02:35:59;;;;;;;0.40;0.20;;;;;;;17.91;100.00;99797.41;5006549;28;20472;-51
2023/09/19 02:38:25;;;;;;;0.40;0.20;;;;;;;17.82;100.00;99792.66;5013017;28;20503;-50
2023/09/19 02:40:53;;;;;;;0.40;0.20;;;;;;;17.88;100.00;99804.81;4999676;28;20489;-50
2023/09/19 02:43:19;;;;;;;0.40;0.20;;;;;;;17.82;100.00;99807.91;5005112;28;21009;-50
2023/09/19 02:45:56;;;;;;;0.40;0.20;;;;;;;17.74;100.00;99798.53;5006172;28;20511;-50
2023/09/19 02:48:24;;;;;;;0.40;0.20;;;;;;;17.47;100.00;99800.31;5002293;28;20490;-51
2023/09/19 02:50:52;;;;;;;0.40;0.30;;;;;;;17.53;100.00;99804.41;4999313;28;20460;-50
2023/09/19 02:53:18;;;;;;;0.40;0.20;;;;;;;17.34;100.00;99802.06;5009166;28;20467;-51
2023/09/19 02:55:47;;;;;;;0.40;0.20;;;;;;;17.28;100.00;99797.09;5047950;22;21364;-51
2023/09/19 02:58:14;;;;;;;0.40;0.20;;;;;;;17.19;100.00;99803.91;5043981;28;20447;-51
2023/09/19 03:00:42;;;;;;;0.40;0.20;;;;;;;16.97;100.00;99801.69;5070363;28;20495;-50
2023/09/19 03:03:08;;;;;;;0.40;0.20;;;;;;;16.95;100.00;99802.75;5065219;28;20485;-51
2023/09/19 03:05:35;;;;;;;0.40;0.20;;;;;;;16.91;100.00;99810.16;5072112;28;20544;-52
2023/09/19 03:08:02;;;;;;;0.40;0.20;;;;;;;16.77;100.00;99810.13;5060573;28;20537;-51
2023/09/19 03:10:30;;;;;;;0.40;0.20;;;;;;;16.63;100.00;99812.78;5065381;28;20501;-51
2023/09/19 03:12:57;;;;;;;0.43;0.20;;;;;;;16.55;100.00;99816.78;5064273;28;20491;-51
2023/09/19 03:15:23;;;;;;;0.40;0.20;;;;;;;16.49;100.00;99818.97;5058476;28;21018;-51
2023/09/19 03:17:51;;;;;;;0.40;0.20;;;;;;;16.42;100.00;99828.34;5059512;28;20968;-51
2023/09/19 03:20:18;;;;;;;0.50;0.20;;;;;;;16.42;100.00;99844.44;5065613;28;20455;-52
2023/09/19 03:22:46;;;;;;;0.40;0.20;;;;;;;16.34;100.00;99839.53;5061983;28;20446;-51
2023/09/19 03:25:13;;;;;;;0.43;0.20;;;;;;;16.32;100.00;99843.28;5057390;28;20794;-51
2023/09/19 03:27:40;;;;;;;0.43;0.20;;;;;;;16.27;100.00;99847.06;5059058;28;20546;-53
2023/09/19 03:30:13;;;;;;;0.40;0.20;;;;;;;16.18;100.00;99847.63;5068128;28;20451;-52
2023/09/19 03:32:49;;;;;;;0.50;0.20;;;;;;;16.15;100.00;99846.94;5069263;28;20577;-53
2023/09/19 03:35:17;;;;;;;0.40;0.20;;;;;;;15.97;100.00;99843.50;5064897;28;20871;-52
2023/09/19 03:37:44;;;;;;;0.40;0.20;;;;;;;15.97;100.00;99847.06;5062619;28;20830;-52
2023/09/19 03:40:11;;;;;;;0.40;0.20;;;;;;;15.97;100.00;99846.19;5066928;28;20450;-51
2023/09/19 03:42:41;;;;;;;0.40;0.20;;;;;;;15.87;100.00;99847.66;5069542;28;20461;-51
2023/09/19 03:45:12;;;;;;;0.40;0.20;;;;;;;15.83;100.00;99851.50;5066233;28;20472;-51
2023/09/19 03:47:40;;;;;;;0.40;0.20;;;;;;;15.77;100.00;99851.84;5058239;28;20467;-51
2023/09/19 03:50:08;;;;;;;0.40;0.20;;;;;;;15.90;100.00;99847.53;5067020;28;20449;-52
2023/09/19 03:52:34;;;;;;;0.40;0.20;;;;;;;15.91;100.00;99850.09;5044025;28;20573;-51
2023/09/19 03:55:02;;;;;;;0.40;0.20;;;;;;;15.80;100.00;99852.53;5047271;28;20455;-51
2023/09/19 03:57:29;;;;;;;0.40;0.20;;;;;;;15.94;100.00;99857.97;5058509;28;20481;-51
2023/09/19 03:59:55;;;;;;;0.40;0.20;;;;;;;15.93;100.00;99853.56;5066796;28;20876;-51
2023/09/19 04:02:24;;;;;;;0.40;0.20;;;;;;;15.85;100.00;99854.94;5050286;28;20541;-51
2023/09/19 04:04:51;;;;;;;0.40;0.20;;;;;;;15.95;100.00;99846.28;5063198;28;20943;-51
2023/09/19 04:07:19;;;;;;;0.40;0.20;;;;;;;15.82;100.00;99855.13;5068843;28;20473;-51
2023/09/19 04:09:46;;;;;;;0.40;0.20;;;;;;;15.90;100.00;99855.56;5067656;28;20445;-52
2023/09/19 04:12:13;;;;;;;0.40;0.20;;;;;;;15.85;100.00;99868.34;5061407;28;20482;-51
2023/09/19 04:14:39;;;;;;;0.40;0.20;;;;;;;15.89;100.00;99869.88;5062911;28;20821;-51
2023/09/19 04:17:05;;;;;;;0.40;0.20;;;;;;;16.36;100.00;99874.31;5068516;28;20933;-51
2023/09/19 04:19:36;;;;;;;0.40;0.20;;;;;;;15.94;100.00;99879.41;5055434;28;20446;-51
2023/09/19 04:22:04;;;;;;;1.50;1.40;;;;;;;15.94;100.00;99876.72;5066910;28;20927;-51
2023/09/19 04:24:32;;;;;;;0.40;0.30;;;;;;;15.97;100.00;99875.69;5058478;28;20451;-51
2023/09/19 04:26:59;;;;;;;0.40;0.20;;;;;;;15.81;100.00;99878.38;5059054;28;20906;-50
2023/09/19 04:29:29;;;;;;;0.40;0.20;;;;;;;15.83;100.00;99875.59;5061743;28;20450;-51
2023/09/19 04:31:57;;;;;;;0.40;0.20;;;;;;;15.79;100.00;99877.59;5059310;28;20508;-51
2023/09/19 04:34:24;;;;;;;0.40;0.20;;;;;;;15.95;100.00;99872.22;5068746;28;20445;-51
2023/09/19 04:36:50;;;;;;;0.40;0.20;;;;;;;15.87;100.00;99869.97;5061057;28;20523;-51
2023/09/19 04:39:17;;;;;;;0.40;0.20;;;;;;;15.92;100.00;99880.47;5056103;28;20538;-51
2023/09/19 04:41:44;;;;;;;0.40;0.20;;;;;;;15.89;100.00;99876.09;5056678;28;20530;-52
2023/09/19 04:44:11;;;;;;;0.40;0.20;;;;;;;15.84;100.00;99880.00;5055728;28;20830;-51
2023/09/19 04:46:38;;;;;;;0.40;0.20;;;;;;;15.70;100.00;99878.97;5061285;28;20835;-51
2023/09/19 04:49:04;;;;;;;0.40;0.20;;;;;;;15.71;100.00;99879.84;5058851;28;20451;-51
2023/09/19 04:51:34;;;;;;;0.40;0.20;;;;;;;15.73;100.00;99880.63;5059121;28;20450;-51
2023/09/19 04:54:01;;;;;;;0.40;0.20;;;;;;;15.78;100.00;99891.09;5057560;28;21027;-51
2023/09/19 04:56:28;;;;;;;0.40;0.20;;;;;;;15.89;100.00;99891.31;5054785;28;20471;-51
2023/09/19 04:58:57;;;;;;;0.40;0.20;;;;;;;15.84;100.00;99888.06;5058775;28;20452;-51
2023/09/19 05:01:23;;;;;;;0.40;0.20;;;;;;;15.99;100.00;99893.41;5040610;28;20562;-51
2023/09/19 05:03:52;;;;;;;0.50;0.50;;;;;;;15.87;100.00;99902.13;5053965;28;20446;-50
2023/09/19 05:06:20;;;;;;;0.40;0.20;;;;;;;15.92;100.00;99904.59;5063965;28;20478;-51
2023/09/19 05:08:52;;;;;;;0.40;0.20;;;;;;;15.83;100.00;99913.13;5058371;28;20454;-51
2023/09/19 05:11:22;;;;;;;0.40;0.20;;;;;;;15.77;100.00;99911.69;5062813;28;20516;-50
2023/09/19 05:13:52;;;;;;;0.40;0.20;;;;;;;15.75;100.00;99916.22;5067279;28;20979;-51
2023/09/19 05:16:20;;;;;;;0.40;0.20;;;;;;;15.77;100.00;99918.84;5067372;28;20527;-50
2023/09/19 05:18:46;;;;;;;0.40;0.20;;;;;;;15.69;100.00;99917.44;5060525;28;20483;-51
2023/09/19 05:21:13;;;;;;;0.40;0.20;;;;;;;15.63;100.00;99916.94;5061065;28;20450;-51
2023/09/19 05:23:39;;;;;;;0.40;0.20;;;;;;;15.63;100.00;99920.47;5061868;28;20455;-51
2023/09/19 05:26:06;;;;;;;0.40;0.20;;;;;;;15.58;100.00;99927.00;5066891;28;20466;-50
2023/09/19 05:28:34;;;;;;;0.40;0.20;;;;;;;15.64;100.00;99932.94;5067510;28;20446;-51
2023/09/19 05:31:04;;;;;;;0.40;0.20;;;;;;;15.76;100.00;99936.75;5067386;28;20515;-51
2023/09/19 05:33:31;;;;;;;0.40;0.20;;;;;;;15.86;100.00;99942.44;5061261;28;20493;-51
2023/09/19 05:35:58;;;;;;;0.40;0.20;;;;;;;15.88;100.00;99944.06;5060273;28;20478;-51
2023/09/19 05:38:26;;;;;;;0.40;0.20;;;;;;;15.93;100.00;99947.38;5065878;28;20517;-50
2023/09/19 05:40:53;;;;;;;0.40;0.20;;;;;;;16.02;100.00;99947.81;5067088;28;20450;-50
2023/09/19 05:43:20;;;;;;;0.40;0.20;;;;;;;16.10;100.00;99950.91;5061610;28;20951;-50
2023/09/19 05:45:47;;;;;;;0.40;0.20;;;;;;;16.09;100.00;99952.75;5059946;28;20474;-49
2023/09/19 05:48:15;;;;;;;0.40;0.20;;;;;;;16.15;100.00;99952.38;5065262;28;20537;-49
2023/09/19 05:50:44;;;;;;;0.40;0.20;;;;;;;16.25;100.00;99961.63;5066775;28;20537;-50
2023/09/19 05:53:12;;;;;;;0.40;0.20;;;;;;;16.44;100.00;99966.78;5051800;28;20491;-50
2023/09/19 05:55:39;;;;;;;0.40;0.20;;;;;;;16.51;100.00;99965.50;5052955;28;20474;-49
2023/09/19 05:58:07;;;;;;;0.40;0.20;;;;;;;16.56;100.00;99966.09;5043769;28;20450;-49
2023/09/19 06:00:33;;;;;;;0.40;0.20;;;;;;;16.74;100.00;99963.34;5066521;28;20466;-50
2023/09/19 06:03:03;;;;;;;0.40;0.20;;;;;;;16.90;100.00;99965.97;5045947;28;20451;-50
2023/09/19 06:05:31;;;;;;;0.40;0.20;;;;;;;16.94;100.00;99954.94;5066314;28;20733;-50
2023/09/19 06:08:01;;;;;;;0.40;0.20;;;;;;;17.01;100.00;99963.50;5064542;28;20543;-50
2023/09/19 06:10:28;;;;;;;0.40;0.20;;;;;;;17.13;100.00;99960.06;5059708;28;20446;-51
2023/09/19 06:12:57;;;;;;;0.40;0.20;;;;;;;17.23;100.00;99965.72;5061678;28;20490;-51
2023/09/19 06:15:25;;;;;;;0.40;0.20;;;;;;;17.31;100.00;99967.00;5066615;28;20454;-51
2023/09/19 06:17:56;;;;;;;0.40;0.20;;;;;;;17.33;100.00;99967.78;5064759;28;20486;-50
2023/09/19 06:20:25;;;;;;;0.40;0.20;;;;;;;17.44;100.00;99959.91;5046501;28;20449;-51
2023/09/19 06:22:51;;;;;;;0.40;0.20;;;;;;;17.46;100.00;99963.38;5061908;28;20808;-51
2023/09/19 06:25:19;;;;;;;0.40;0.20;;;;;;;17.58;100.00;99969.81;5059983;28;20420;-50
2023/09/19 06:27:47;;;;;;;0.40;0.20;;;;;;;17.66;99.66;99977.38;5059526;28;20451;-51
2023/09/19 06:30:14;;;;;;;0.40;0.20;;;;;;;17.72;100.00;99975.22;5066091;28;20450;-50
2023/09/19 06:32:44;;;;;;;0.40;0.20;;;;;;;17.96;98.46;99980.88;5053163;28;20534;-50
2023/09/19 06:35:12;;;;;;;0.40;0.20;;;;;;;18.11;97.86;99986.22;5065050;28;20530;-51
2023/09/19 06:37:39;;;;;;;0.40;0.20;;;;;;;17.98;97.37;99989.69;5066366;28;20804;-51
2023/09/19 06:40:14;;;;;;;0.40;0.20;;;;;;;17.79;98.09;99991.81;5061506;28;20488;-50
2023/09/19 06:42:45;;;;;;;0.40;0.20;;;;;;;17.69;98.99;99994.22;5059413;28;20481;-50
2023/09/19 06:45:18;;;;;;;0.40;0.20;;;;;;;18.16;98.35;99994.84;5062212;28;20450;-50
2023/09/19 06:47:49;;;;;;;0.40;0.20;;;;;;;17.92;98.09;99991.88;5066123;28;20970;-50
2023/09/19 06:50:22;;;;;;;0.40;0.20;;;;;;;18.02;97.34;99991.22;5064772;28;20442;-51
2023/09/19 06:52:54;;;;;;;0.40;0.20;;;;;;;17.92;97.89;100000.81;5054048;28;20604;-50
2023/09/19 06:55:24;;;;;;;0.40;0.20;;;;;;;18.28;96.58;100002.13;5047305;28;20504;-50
2023/09/19 06:57:54;;;;;;;0.40;0.20;;;;;;;18.13;96.83;100011.19;5053781;28;20451;-50
2023/09/19 07:00:24;;;;;;;0.40;0.20;;;;;;;18.18;97.94;100012.59;5065724;28;20516;-50
2023/09/19 07:02:57;;;;;;;0.40;0.20;;;;;;;18.28;98.08;100019.13;5045233;28;20455;-50
2023/09/19 07:05:23;;;;;;;0.40;0.20;;;;;;;18.29;97.19;100022.69;5064965;28;20428;-50
2023/09/19 07:07:50;;;;;;;0.40;0.20;;;;;;;18.37;97.31;100030.28;5062296;28;20515;-50
2023/09/19 07:10:18;;;;;;;0.40;0.20;;;;;;;18.62;96.74;100031.22;5058463;28;20457;-50
2023/09/19 07:12:44;;;;;;;0.40;0.20;;;;;;;18.67;96.49;100027.44;5062162;28;20464;-50
2023/09/19 07:15:11;;;;;;;0.40;0.20;;;;;;;18.79;96.08;100038.25;5065576;28;20898;-50
2023/09/19 07:17:37;;;;;;;0.40;0.27;;;;;;;18.67;95.87;100044.44;5062647;28;20472;-51
2023/09/19 07:20:07;;;;;;;0.40;0.20;;;;;;;18.55;94.53;100047.91;5058679;28;20512;-50
2023/09/19 07:22:35;;;;;;;0.40;0.20;;;;;;;18.53;94.27;100047.16;5061063;28;20429;-50
2023/09/19 07:25:01;;;;;;;0.40;0.20;;;;;;;18.85;94.26;100053.13;5063654;28;20458;-50
2023/09/19 07:27:27;;;;;;;0.40;0.20;;;;;;;18.78;92.21;100054.53;5063195;28;20994;-51
2023/09/19 07:29:54;;;;;;;0.40;0.20;;;;;;;18.96;93.02;100060.50;5058499;28;20540;-50
2023/09/19 07:32:20;;;;;;;0.40;0.20;;;;;;;18.88;92.39;100064.56;5060920;28;20454;-50
2023/09/19 07:34:47;;;;;;;0.40;0.20;;;;;;;18.62;92.26;100065.38;5065523;28;21014;-50
2023/09/19 07:37:15;;;;;;;0.40;0.20;;;;;;;18.76;92.62;100070.75;5063035;28;20978;-50
2023/09/19 07:39:43;;;;;;;0.40;0.20;;;;;;;18.61;90.91;100069.03;5058537;28;20466;-50
2023/09/19 07:42:11;;;;;;;0.40;0.20;;;;;;;18.79;90.46;100075.97;5060235;28;20969;-50
2023/09/19 07:44:38;;;;;;;0.40;0.20;;;;;;;18.78;90.45;100085.00;5065075;28;21034;-50
2023/09/19 07:47:04;;;;;;;0.40;0.20;;;;;;;18.42;88.67;100087.34;5064095;28;20823;-51
2023/09/19 07:49:30;;;;;;;0.40;0.20;;;;;;;18.49;87.84;100104.81;5058152;28;20842;-50
2023/09/19 07:51:58;;;;;;;0.40;0.20;;;;;;;19.05;87.45;100101.16;5059608;28;20512;-52
2023/09/19 07:54:25;;;;;;;0.40;0.20;;;;;;;18.95;86.73;100091.97;5046425;28;20573;-50
2023/09/19 07:56:51;;;;;;;0.40;0.20;;;;;;;19.11;84.88;100097.19;5054592;28;20503;-50
2023/09/19 07:59:18;;;;;;;0.40;0.20;;;;;;;18.88;85.80;100101.41;5058161;28;20431;-50
2023/09/19 08:01:44;;;;;;;0.40;0.20;;;;;;;19.01;85.12;100102.31;5051894;28;20437;-50
2023/09/19 08:04:11;;;;;;;0.40;0.20;;;;;;;19.13;86.14;100109.59;5057695;28;20456;-50
2023/09/19 08:06:39;;;;;;;0.40;0.20;;;;;;;19.09;84.58;100112.59;5058651;28;20445;-50
2023/09/19 08:09:09;;;;;;;0.40;0.20;;;;;;;19.52;82.76;100106.03;5065393;28;20428;-50
2023/09/19 08:11:35;;;;;;;0.40;0.20;;;;;;;19.12;82.68;100121.34;5065276;28;20810;-50
2023/09/19 08:14:02;;;;;;;0.40;0.20;;;;;;;19.21;81.38;100109.09;5058836;28;21006;-50
2023/09/19 08:16:28;;;;;;;0.40;0.20;;;;;;;18.98;83.48;100118.69;5058129;28;20487;-50
2023/09/19 08:18:55;;;;;;;0.40;0.20;;;;;;;19.10;81.88;100123.28;5067886;28;20436;-51
2023/09/19 08:21:23;;;;;;;0.40;0.30;;;;;;;19.09;80.27;100126.06;5068654;28;20527;-50
2023/09/19 08:23:50;;;;;;;0.50;0.40;;;;;;;19.10;79.68;100134.06;5062608;28;20499;-50
2023/09/19 08:26:17;;;;;;;0.40;0.20;;;;;;;19.01;79.21;100133.78;5061637;28;20447;-50
2023/09/19 08:28:43;;;;;;;0.40;0.20;;;;;;;19.02;78.45;100125.59;5067274;28;20974;-50
2023/09/19 08:31:10;;;;;;;0.40;0.20;;;;;;;18.96;78.25;100127.84;5068478;28;20969;-50
2023/09/19 08:33:37;;;;;;;0.40;0.20;;;;;;;19.22;78.02;100129.69;5062376;28;20471;-51
2023/09/19 08:36:07;;;;;;;0.40;0.20;;;;;;;19.24;79.07;100130.44;5061621;28;20545;-50
2023/09/19 08:38:35;;;;;;;0.40;0.20;;;;;;;19.47;78.63;100136.97;5066653;28;20448;-50
2023/09/19 08:41:06;;;;;;;0.40;0.20;;;;;;;19.24;78.55;100136.69;5068407;28;20446;-50
2023/09/19 08:43:34;;;;;;;0.40;0.20;;;;;;;19.02;75.81;100136.38;5064116;28;20445;-51
2023/09/19 08:46:19;;;;;;;0.40;0.20;;;;;;;19.20;76.18;100132.47;5061343;28;20995;-50
2023/09/19 08:49:09;;;;;;;0.40;0.20;;;;;;;19.23;74.90;100129.56;5062824;28;20421;-50
2023/09/19 08:51:41;;;;;;;0.40;0.20;;;;;;;18.91;76.25;100138.91;5051439;28;20427;-50
2023/09/19 08:54:08;;;;;;;0.40;0.20;;;;;;;19.06;77.17;100142.44;5058575;28;21083;-50
2023/09/19 08:56:39;;;;;;;0.40;0.20;;;;;;;19.11;75.87;100143.00;5063128;22;20492;-50
2023/09/19 08:59:10;;;;;;;0.40;0.20;;;;;;;19.06;75.16;100146.00;5034535;28;20496;-49
2023/09/19 09:01:41;;;;;;;0.40;0.20;;;;;;;19.13;74.64;100150.00;5034482;28;20442;-50
2023/09/19 09:04:12;;;;;;;0.40;0.20;;;;;;;19.35;75.00;100149.47;5021104;28;20449;-50
2023/09/19 09:06:43;;;;;;;0.40;0.20;;;;;;;19.70;74.97;100141.69;5034059;28;20475;-50
2023/09/19 09:09:10;;;;;;;0.40;0.20;;;;;;;20.29;73.71;100146.59;5034301;28;20465;-50
2023/09/19 09:11:39;;;;;;;0.40;0.20;;;;;;;19.83;73.46;100147.09;5034292;28;20455;-50
2023/09/19 09:14:07;;;;;;;0.57;0.57;;;;;;;20.11;74.97;100143.34;5034204;28;20998;-50
2023/09/19 09:16:34;;;;;;;0.40;0.30;;;;;;;20.22;72.09;100135.34;5034147;28;20467;-50
2023/09/19 09:19:01;;;;;;;0.40;0.20;;;;;;;20.66;73.05;100129.47;5034008;28;20907;-51
2023/09/19 09:21:28;;;;;;;0.40;0.20;;;;;;;20.83;71.16;100140.88;5033917;28;20452;-51
2023/09/19 09:23:55;;;;;;;0.40;0.20;;;;;;;20.35;70.54;100136.19;5031866;28;20437;-50
2023/09/19 09:26:42;;;;;;;0.40;0.20;;;;;;;20.72;69.78;100143.53;5020519;28;20468;-50
2023/09/19 09:29:09;;;;;;;0.40;0.20;;;;;;;20.97;69.30;100138.06;5034107;28;20422;-50
2023/09/19 09:31:35;;;;;;;0.40;0.20;;;;;;;21.06;68.25;100139.19;5033774;28;20538;-50
2023/09/19 09:34:02;;;;;;;0.40;0.20;;;;;;;20.99;68.98;100134.25;5033644;28;20466;-50
2023/09/19 09:36:37;;;;;;;0.40;0.20;;;;;;;20.97;67.68;100130.81;5033655;28;20547;-50
2023/09/19 09:39:15;;;;;;;0.40;0.20;;;;;;;21.08;66.66;100131.81;5033742;28;20941;-50
2023/09/19 09:41:43;;;;;;;0.40;0.20;;;;;;;20.82;67.60;100139.16;5011091;28;20484;-50
2023/09/19 09:44:15;;;;;;;0.40;0.20;;;;;;;20.67;67.50;100133.03;5033518;28;20444;-51
2023/09/19 09:49:34;;;;;;;0.40;0.20;;;;;;;21.27;68.39;100130.38;5033721;28;20421;-50
2023/09/19 09:52:16;;;;;;;0.40;0.20;;;;;;;21.13;68.10;100132.38;5033687;28;20444;-51
2023/09/19 09:55:05;;;;;;;0.40;0.20;;;;;;;21.28;67.33;100126.69;5019927;28;20498;-52
2023/09/19 09:57:33;;;;;;;0.40;0.20;;;;;;;21.20;67.49;100139.03;5017630;28;20472;-50
2023/09/19 10:02:40;;;;;;;0.40;0.20;;;;;;;21.53;63.44;100124.84;5015673;28;20496;-50
2023/09/19 10:05:20;;;;;;;0.40;0.20;;;;;;;21.35;63.35;100126.22;5032870;28;20440;-50
2023/09/19 10:08:00;;;;;;;0.40;0.20;;;;;;;21.23;63.72;100126.13;5032931;28;20806;-50
2023/09/19 10:13:17;;;;;;;0.40;0.20;;;;;;;21.92;60.55;100126.25;5032947;28;20772;-50
2023/09/19 10:15:50;;;;;;;0.40;0.20;;;;;;;21.49;60.24;100134.13;5032798;28;20552;-50
2023/09/19 10:18:25;;;;;;;0.40;0.20;;;;;;;21.83;60.71;100127.88;5033051;28;20496;-51
2023/09/19 10:20:52;;;;;;;0.50;0.30;;;;;;;21.66;59.65;100141.00;5032778;28;20923;-51
2023/09/19 10:23:23;;;;;;;0.40;0.20;;;;;;;21.42;59.79;100138.31;5030742;28;20946;-50
2023/09/19 10:25:51;;;;;;;0.50;0.30;;;;;;;21.11;60.58;100134.31;5032477;28;20444;-50
2023/09/19 10:28:23;;;;;;;0.40;0.20;;;;;;;21.46;59.79;100137.09;5032287;28;20426;-50
2023/09/19 10:30:53;;;;;;;0.40;0.20;;;;;;;21.32;59.45;100127.31;5031440;28;20505;-50
2023/09/19 10:33:27;;;;;;;0.40;0.20;;;;;;;21.13;59.37;100129.66;5032878;28;20444;-51
2023/09/19 10:35:55;;;;;;;0.50;0.30;;;;;;;21.14;59.28;100134.09;5032347;28;20522;-51
2023/09/19 10:38:28;;;;;;;0.40;0.20;;;;;;;21.33;58.77;100120.06;5031962;28;20476;-50
2023/09/19 10:40:59;;;;;;;0.40;0.20;;;;;;;21.73;60.79;100124.13;5032455;28;20433;-50
2023/09/19 10:43:31;;;;;;;0.40;0.20;;;;;;;21.75;60.03;100124.03;5032610;28;20456;-49
2023/09/19 10:46:07;;;;;;;0.40;0.20;;;;;;;21.55;58.71;100122.88;5032369;28;20554;-50
2023/09/19 10:48:33;;;;;;;0.50;0.30;;;;;;;21.29;59.64;100124.84;5032485;28;20444;-50
2023/09/19 10:51:13;;;;;;;0.40;0.20;;;;;;;21.46;58.98;100124.41;5032241;28;20447;-50
2023/09/19 10:53:47;;;;;;;0.40;0.20;;;;;;;21.29;60.04;100127.56;5023944;28;20439;-51
2023/09/19 10:56:32;;;;;;;0.40;0.20;;;;;;;21.41;60.72;100115.81;5027351;28;21050;-50
2023/09/19 10:59:10;;;;;;;0.40;0.20;;;;;;;21.89;57.71;100115.69;5016278;28;20448;-51
2023/09/19 11:01:57;;;;;;;0.40;0.20;;;;;;;21.59;57.84;100102.69;5026137;28;20431;-50
2023/09/19 11:04:35;;;;;;;0.40;0.20;;;;;;;21.62;59.72;100115.13;5010021;28;20415;-50
2023/09/19 11:07:14;;;;;;;0.40;0.20;;;;;;;21.99;58.45;100110.41;5032120;28;21045;-50
2023/09/19 11:09:57;;;;;;;0.40;0.20;;;;;;;22.15;57.14;100092.00;5032402;28;20505;-50
2023/09/19 11:14:59;;;;;;;0.40;0.20;;;;;;;22.30;53.70;100090.78;5032032;28;20490;-50
2023/09/19 11:17:33;;;;;;;0.40;0.20;;;;;;;22.28;54.62;100094.59;5031927;28;20969;-50
2023/09/19 11:20:15;;;;;;;0.40;0.20;;;;;;;22.36;55.46;100078.59;5031873;28;20505;-50
2023/09/19 11:22:53;;;;;;;0.40;0.20;;;;;;;22.02;54.60;100081.25;5030998;28;20444;-50
2023/09/19 11:28:18;;;;;;;0.40;0.20;;;;;;;21.96;54.72;100068.22;5031848;28;21261;-50
2023/09/19 11:30:46;;;;;;;0.50;0.20;;;;;;;22.20;54.01;100067.25;5031776;28;20418;-50
2023/09/19 11:33:28;;;;;;;0.40;0.30;;;;;;;22.76;53.72;100068.06;5030591;28;20469;-50
2023/09/19 11:36:02;;;;;;;0.40;0.20;;;;;;;22.39;52.69;100070.22;5031560;28;20837;-50
2023/09/19 11:38:49;;;;;;;0.50;0.20;;;;;;;22.66;53.22;100065.25;5031907;28;20577;-50
2023/09/19 11:41:21;;;;;;;0.40;0.20;;;;;;;23.03;52.57;100067.66;5031639;28;20445;-50
2023/09/19 11:43:47;;;;;;;0.40;0.20;;;;;;;22.94;50.96;100066.56;5020122;28;20427;-50
2023/09/19 11:46:16;;;;;;;0.50;0.30;;;;;;;22.48;51.82;100069.47;5040351;28;20473;-50
2023/09/19 11:48:47;;;;;;;0.40;0.20;;;;;;;22.51;51.65;100069.22;5024510;28;20799;-50
2023/09/19 11:51:19;;;;;;;0.40;0.20;;;;;;;22.57;51.51;100066.00;5008165;28;20448;-50